createdAt,value
2022-10-10T00:01:43.423Z,8.70
2022-10-10T00:04:11.962Z,8.80
2022-10-10T00:06:41.811Z,8.80
2022-10-10T00:09:10.322Z,8.70
2022-10-10T00:11:38.817Z,8.70
2022-10-10T00:14:07.419Z,8.80
2022-10-10T00:16:35.898Z,8.70
2022-10-10T00:19:04.445Z,8.60
2022-10-10T00:21:32.990Z,8.60
2022-10-10T00:24:02.997Z,8.60
2022-10-10T00:26:31.432Z,8.50
2022-10-10T00:28:59.931Z,8.50
2022-10-10T00:31:28.373Z,8.50
2022-10-10T00:33:56.902Z,8.50
2022-10-10T00:36:25.495Z,8.40
2022-10-10T00:38:54.072Z,8.30
2022-10-10T00:41:24.206Z,8.40
2022-10-10T00:44:09.757Z,8.30
2022-10-10T00:46:38.694Z,8.40
2022-10-10T00:49:11.589Z,8.30
2022-10-10T00:51:40.139Z,8.30
2022-10-10T00:54:11.553Z,8.30
2022-10-10T00:56:45.391Z,8.30
2022-10-10T00:59:13.917Z,8.20
2022-10-10T01:01:42.876Z,8.20
2022-10-10T01:04:30.734Z,8.20
2022-10-10T01:07:02.663Z,8.10
2022-10-10T01:09:32.275Z,8.00
2022-10-10T01:12:15.264Z,8.10
2022-10-10T01:14:53.841Z,8.10
2022-10-10T01:17:28.576Z,8.00
2022-10-10T01:20:35.336Z,8.00
2022-10-10T01:23:29.047Z,8.00
2022-10-10T01:26:13.761Z,8.00
2022-10-10T01:28:51.691Z,8.00
2022-10-10T01:31:24.280Z,8.00
2022-10-10T01:34:02.279Z,7.90
2022-10-10T01:36:39.549Z,8.00
2022-10-10T01:39:14.706Z,7.90
2022-10-10T01:41:50.594Z,7.90
2022-10-10T01:44:22.491Z,7.90
2022-10-10T01:46:51.021Z,7.80
2022-10-10T01:49:19.983Z,7.80
2022-10-10T01:52:03.573Z,7.80
2022-10-10T01:54:42.859Z,7.80
2022-10-10T01:57:21.075Z,7.80
2022-10-10T02:00:02.164Z,7.80
2022-10-10T02:02:50.308Z,7.80
2022-10-10T02:05:26.015Z,7.80
2022-10-10T02:07:58.559Z,7.80
2022-10-10T02:10:33.334Z,7.70
2022-10-10T02:13:03.923Z,7.70
2022-10-10T02:15:41.044Z,7.80
2022-10-10T02:18:12.724Z,7.80
2022-10-10T02:20:43.183Z,7.80
2022-10-10T02:23:15.433Z,7.80
2022-10-10T02:25:45.893Z,7.70
2022-10-10T02:28:18.533Z,7.80
2022-10-10T02:30:52.636Z,7.70
2022-10-10T02:33:27.242Z,7.70
2022-10-10T02:35:56.338Z,7.60
2022-10-10T02:38:26.028Z,7.60
2022-10-10T02:40:55.918Z,7.60
2022-10-10T02:43:24.658Z,7.60
2022-10-10T02:45:54.726Z,7.60
2022-10-10T02:48:23.256Z,7.60
2022-10-10T02:50:51.696Z,7.60
2022-10-10T02:53:20.184Z,7.60
2022-10-10T02:55:48.657Z,7.50
2022-10-10T02:58:20.643Z,7.50
2022-10-10T03:00:51.739Z,7.40
2022-10-10T03:03:21.722Z,7.50
2022-10-10T03:05:50.915Z,7.50
2022-10-10T03:08:19.854Z,7.50
2022-10-10T03:10:56.996Z,7.50
2022-10-10T03:13:25.972Z,7.50
2022-10-10T03:15:54.951Z,7.40
2022-10-10T03:18:25.598Z,7.40
2022-10-10T03:20:56.210Z,7.40
2022-10-10T03:23:26.043Z,7.40
2022-10-10T03:25:55.009Z,7.30
2022-10-10T03:28:23.868Z,7.20
2022-10-10T03:30:52.692Z,7.10
2022-10-10T03:33:22.017Z,7.00
2022-10-10T03:35:52.133Z,7.10
2022-10-10T03:38:20.876Z,7.00
2022-10-10T03:40:49.426Z,7.00
2022-10-10T03:43:18.095Z,7.10
2022-10-10T03:45:47.730Z,7.10
2022-10-10T03:48:16.651Z,7.00
2022-10-10T03:50:45.466Z,7.10
2022-10-10T03:53:15.496Z,7.00
2022-10-10T03:55:44.512Z,7.00
2022-10-10T03:58:13.315Z,6.90
2022-10-10T04:00:41.898Z,6.90
2022-10-10T04:03:10.580Z,6.80
2022-10-10T04:05:40.250Z,6.90
2022-10-10T04:08:08.889Z,6.90
2022-10-10T04:10:38.891Z,6.90
2022-10-10T04:13:07.580Z,7.00
2022-10-10T04:15:36.291Z,7.00
2022-10-10T04:18:05.080Z,7.00
2022-10-10T04:20:34.244Z,6.90
2022-10-10T04:23:02.800Z,7.00
2022-10-10T04:25:31.437Z,6.90
2022-10-10T04:28:01.612Z,6.90
2022-10-10T04:30:33.301Z,6.90
2022-10-10T04:33:02.253Z,6.80
2022-10-10T04:35:30.899Z,6.80
2022-10-10T04:37:59.527Z,6.80
2022-10-10T04:40:30.920Z,6.70
2022-10-10T04:43:01.050Z,6.70
2022-10-10T04:45:31.896Z,6.70
2022-10-10T04:48:03.998Z,6.70
2022-10-10T04:50:34.057Z,6.70
2022-10-10T04:53:02.679Z,6.60
2022-10-10T04:55:34.158Z,6.60
2022-10-10T04:58:04.484Z,6.50
2022-10-10T05:00:33.094Z,6.60
2022-10-10T05:03:01.784Z,6.60
2022-10-10T05:05:30.546Z,6.60
2022-10-10T05:07:59.332Z,6.50
2022-10-10T05:10:27.849Z,6.50
2022-10-10T05:12:56.491Z,6.50
2022-10-10T05:15:27.130Z,6.50
2022-10-10T05:17:55.720Z,6.50
2022-10-10T05:20:24.459Z,6.50
2022-10-10T05:22:53.592Z,6.50
2022-10-10T05:25:22.498Z,6.50
2022-10-10T05:27:51.186Z,6.50
2022-10-10T05:30:20.216Z,6.50
2022-10-10T05:32:50.655Z,6.50
2022-10-10T05:35:19.769Z,6.50
2022-10-10T05:37:48.389Z,6.50
2022-10-10T05:40:17.070Z,6.50
2022-10-10T05:42:45.725Z,6.50
2022-10-10T05:45:14.254Z,6.50
2022-10-10T05:47:42.878Z,6.60
2022-10-10T05:50:31.066Z,6.60
2022-10-10T05:52:59.809Z,6.60
2022-10-10T05:55:28.497Z,6.60
2022-10-10T05:57:57.539Z,6.70
2022-10-10T06:00:26.273Z,6.70
2022-10-10T06:02:55.307Z,6.80
2022-10-10T06:05:25.992Z,6.80
2022-10-10T06:08:12.086Z,6.90
2022-10-10T06:10:43.168Z,6.90
2022-10-10T06:13:12.373Z,7.00
2022-10-10T06:15:41.121Z,7.00
2022-10-10T06:18:10.506Z,7.00
2022-10-10T06:20:42.119Z,7.10
2022-10-10T06:23:10.911Z,7.10
2022-10-10T06:25:41.175Z,7.20
2022-10-10T06:28:11.111Z,7.30
2022-10-10T06:30:43.922Z,7.30
2022-10-10T06:33:15.216Z,7.50
2022-10-10T06:35:46.100Z,7.60
2022-10-10T06:38:16.359Z,7.70
2022-10-10T06:40:45.403Z,7.80
2022-10-10T06:43:16.031Z,7.90
2022-10-10T06:45:46.601Z,7.90
2022-10-10T06:48:19.320Z,7.90
2022-10-10T06:50:59.829Z,7.90
2022-10-10T06:53:28.865Z,8.10
2022-10-10T06:55:57.772Z,8.20
2022-10-10T06:58:28.118Z,8.50
2022-10-10T07:00:59.367Z,8.50
2022-10-10T07:03:28.981Z,8.60
2022-10-10T07:06:00.722Z,8.70
2022-10-10T07:08:30.004Z,8.80
2022-10-10T07:10:58.581Z,8.80
2022-10-10T07:13:27.244Z,8.90
2022-10-10T07:15:55.918Z,9.00
2022-10-10T07:18:24.675Z,9.10
2022-10-10T07:20:59.389Z,9.10
2022-10-10T07:23:29.147Z,9.30
2022-10-10T07:26:01.764Z,9.30
2022-10-10T07:28:31.217Z,9.40
2022-10-10T07:31:05.428Z,9.40
2022-10-10T07:33:34.330Z,9.50
2022-10-10T07:36:04.764Z,9.40
2022-10-10T07:38:33.380Z,9.40
2022-10-10T07:41:02.107Z,9.30
2022-10-10T07:43:30.754Z,9.30
2022-10-10T07:48:33.426Z,9.30
2022-10-10T07:51:06.881Z,9.40
2022-10-10T07:53:35.734Z,9.60
2022-10-10T07:56:05.943Z,9.70
2022-10-10T07:58:35.513Z,9.90
2022-10-10T08:01:04.820Z,10.00
2022-10-10T08:03:33.872Z,10.20
2022-10-10T08:06:06.693Z,10.30
2022-10-10T08:08:42.776Z,10.30
2022-10-10T08:11:18.448Z,10.30
2022-10-10T08:13:47.260Z,10.30
2022-10-10T08:16:16.152Z,10.20
2022-10-10T08:18:44.864Z,10.30
2022-10-10T08:21:16.834Z,10.30
2022-10-10T08:23:45.543Z,10.30
2022-10-10T08:26:15.738Z,10.30
2022-10-10T08:28:45.084Z,10.50
2022-10-10T08:31:15.583Z,10.80
2022-10-10T08:33:46.112Z,11.10
2022-10-10T08:36:18.053Z,11.30
2022-10-10T08:38:47.448Z,11.50
2022-10-10T08:41:25.358Z,11.60
2022-10-10T08:43:58.148Z,11.70
2022-10-10T08:46:36.033Z,11.80
2022-10-10T08:49:17.812Z,12.00
2022-10-10T08:51:52.887Z,12.00
2022-10-10T08:54:24.443Z,12.00
2022-10-10T08:56:53.934Z,12.10
2022-10-10T08:59:27.682Z,12.10
2022-10-10T09:02:17.576Z,12.20
2022-10-10T09:04:48.827Z,12.30
2022-10-10T09:07:28.218Z,12.50
2022-10-10T09:10:08.643Z,12.50
2022-10-10T09:12:46.335Z,12.60
2022-10-10T09:15:21.954Z,12.60
2022-10-10T09:18:00.447Z,12.80
2022-10-10T09:20:49.462Z,13.10
2022-10-10T09:23:24.129Z,13.20
2022-10-10T09:25:58.804Z,13.30
2022-10-10T09:28:39.203Z,13.50
2022-10-10T09:31:12.995Z,13.80
2022-10-10T09:33:45.460Z,14.10
2022-10-10T09:36:18.526Z,14.20
2022-10-10T09:38:54.110Z,14.20
2022-10-10T09:41:28.253Z,14.20
2022-10-10T09:43:58.443Z,14.40
2022-10-10T09:46:27.612Z,14.60
2022-10-10T09:48:56.836Z,14.90
2022-10-10T09:51:25.802Z,15.00
2022-10-10T09:53:55.745Z,15.10
2022-10-10T09:56:26.979Z,15.20
2022-10-10T09:58:56.914Z,15.20
2022-10-10T10:01:28.911Z,15.50
2022-10-10T10:04:29.542Z,15.80
2022-10-10T10:07:09.003Z,15.90
2022-10-10T10:09:39.834Z,16.00
2022-10-10T10:12:08.481Z,16.20
2022-10-10T10:14:39.443Z,15.90
2022-10-10T10:17:10.180Z,15.60
2022-10-10T10:19:40.534Z,15.50
2022-10-10T10:22:26.991Z,15.30
2022-10-10T10:24:57.092Z,15.20
2022-10-10T10:27:28.186Z,15.40
2022-10-10T10:29:58.401Z,15.50
2022-10-10T10:32:46.520Z,15.60
2022-10-10T10:35:24.545Z,15.60
2022-10-10T10:38:22.536Z,15.60
2022-10-10T10:41:00.307Z,15.80
2022-10-10T10:43:47.667Z,15.90
2022-10-10T10:46:28.111Z,16.00
2022-10-10T10:49:02.872Z,16.00
2022-10-10T10:51:51.481Z,16.10
2022-10-10T10:54:39.445Z,15.80
2022-10-10T11:00:21.882Z,15.80
2022-10-10T11:03:38.455Z,16.00
2022-10-10T11:06:18.247Z,16.10
2022-10-10T11:08:59.089Z,16.20
2022-10-10T11:11:50.066Z,16.30
2022-10-10T11:14:31.693Z,16.30
2022-10-10T11:17:05.058Z,16.20
2022-10-10T11:19:39.470Z,16.20
2022-10-10T11:22:12.306Z,16.30
2022-10-10T11:24:46.338Z,16.30
2022-10-10T11:27:20.418Z,16.20
2022-10-10T11:29:58.717Z,16.00
2022-10-10T11:32:33.184Z,16.00
2022-10-10T11:35:15.429Z,16.10
2022-10-10T11:37:48.860Z,16.20
2022-10-10T11:40:33.438Z,16.20
2022-10-10T11:43:06.375Z,16.20
2022-10-10T11:45:44.801Z,16.30
2022-10-10T11:48:25.350Z,16.40
2022-10-10T11:50:57.822Z,16.50
2022-10-10T11:53:34.098Z,16.60
2022-10-10T11:56:11.566Z,16.60
2022-10-10T11:58:42.525Z,16.70
2022-10-10T12:01:17.456Z,16.80
2022-10-10T12:03:46.183Z,16.80
2022-10-10T12:06:20.708Z,16.80
2022-10-10T12:08:56.598Z,16.80
2022-10-10T12:11:31.461Z,16.80
2022-10-10T12:14:02.599Z,16.90
2022-10-10T12:16:36.453Z,16.90
2022-10-10T12:19:09.042Z,17.00
2022-10-10T12:21:55.584Z,17.20
2022-10-10T12:24:25.995Z,17.20
2022-10-10T12:27:31.176Z,17.30
2022-10-10T12:30:26.641Z,17.30
2022-10-10T12:32:56.958Z,17.40
2022-10-10T12:35:42.704Z,17.50
2022-10-10T12:38:20.618Z,17.50
2022-10-10T12:41:16.803Z,17.60
2022-10-10T12:43:50.453Z,17.50
2022-10-10T12:46:30.662Z,17.50
2022-10-10T12:49:17.721Z,17.50
2022-10-10T12:51:59.616Z,17.40
2022-10-10T12:54:33.591Z,17.50
2022-10-10T12:57:16.140Z,17.60
2022-10-10T12:59:44.895Z,17.80
2022-10-10T13:02:19.790Z,17.80
2022-10-10T13:04:52.557Z,17.80
2022-10-10T13:07:23.330Z,17.80
2022-10-10T13:09:54.013Z,17.80
2022-10-10T13:12:30.577Z,18.00
2022-10-10T13:14:59.660Z,18.00
2022-10-10T13:17:31.292Z,18.00
2022-10-10T13:20:02.692Z,18.00
2022-10-10T13:22:33.388Z,18.00
2022-10-10T13:25:07.487Z,18.00
2022-10-10T13:27:36.711Z,17.90
2022-10-10T13:30:08.246Z,17.90
2022-10-10T13:32:37.482Z,17.90
2022-10-10T13:35:14.659Z,17.80
2022-10-10T13:37:46.244Z,17.80
2022-10-10T13:40:16.554Z,17.70
2022-10-10T13:42:47.927Z,17.50
2022-10-10T13:45:37.063Z,17.30
2022-10-10T13:48:39.622Z,17.10
2022-10-10T13:51:11.389Z,17.10
2022-10-10T13:53:48.593Z,17.20
2022-10-10T13:56:20.804Z,17.20
2022-10-10T13:58:51.872Z,17.40
2022-10-10T14:01:34.628Z,17.40
2022-10-10T14:04:17.050Z,17.50
2022-10-10T14:06:57.549Z,17.60
2022-10-10T14:09:30.871Z,17.60
2022-10-10T14:12:03.266Z,17.70
2022-10-10T14:14:36.647Z,17.70
2022-10-10T14:17:06.820Z,17.60
2022-10-10T14:19:35.508Z,17.50
2022-10-10T14:22:06.261Z,17.40
2022-10-10T14:24:35.073Z,17.40
2022-10-10T14:27:15.514Z,17.40
2022-10-10T14:29:44.404Z,17.50
2022-10-10T14:32:14.580Z,17.50
2022-10-10T14:34:43.852Z,17.50
2022-10-10T14:37:19.897Z,17.50
2022-10-10T14:39:48.874Z,17.50
2022-10-10T14:42:18.999Z,17.50
2022-10-10T14:44:48.272Z,17.50
2022-10-10T14:47:19.030Z,17.50
2022-10-10T14:49:48.135Z,17.40
2022-10-10T14:52:18.203Z,17.30
2022-10-10T14:54:51.891Z,17.30
2022-10-10T14:57:22.504Z,17.20
2022-10-10T14:59:51.142Z,17.20
2022-10-10T15:02:21.050Z,17.20
2022-10-10T15:04:49.827Z,17.10
2022-10-10T15:07:20.530Z,17.10
2022-10-10T15:10:30.828Z,17.10
2022-10-10T15:12:41.308Z,17.00
2022-10-10T15:15:11.734Z,16.90
2022-10-10T15:17:40.956Z,16.90
2022-10-10T15:20:12.232Z,16.80
2022-10-10T15:22:45.427Z,16.80
2022-10-10T15:25:14.515Z,16.70
2022-10-10T15:27:43.180Z,16.60
2022-10-10T15:30:12.460Z,16.60
2022-10-10T15:32:41.847Z,16.50
2022-10-10T15:35:15.405Z,16.40
2022-10-10T15:37:46.417Z,16.40
2022-10-10T15:40:17.473Z,16.40
2022-10-10T15:42:46.204Z,16.40
2022-10-10T15:45:19.340Z,16.40
2022-10-10T15:48:00.514Z,16.40
2022-10-10T15:50:29.140Z,16.40
2022-10-10T15:52:59.219Z,16.30
2022-10-10T15:55:27.904Z,16.30
2022-10-10T15:57:56.683Z,16.20
2022-10-10T16:00:25.314Z,16.20
2022-10-10T16:02:54.063Z,16.00
2022-10-10T16:05:22.686Z,15.90
2022-10-10T16:07:53.501Z,15.70
2022-10-10T16:10:23.569Z,15.50
2022-10-10T16:12:52.315Z,15.40
2022-10-10T16:15:20.937Z,15.20
2022-10-10T16:17:49.708Z,15.10
2022-10-10T16:20:18.364Z,15.00
2022-10-10T16:22:47.146Z,14.90
2022-10-10T16:25:23.491Z,14.90
2022-10-10T16:27:53.925Z,14.80
2022-10-10T16:30:22.720Z,14.70
2022-10-10T16:32:51.460Z,14.70
2022-10-10T16:35:20.132Z,14.60
2022-10-10T16:37:48.939Z,14.60
2022-10-10T16:40:17.567Z,14.50
2022-10-10T16:42:46.242Z,14.50
2022-10-10T16:45:16.477Z,14.40
2022-10-10T16:47:45.121Z,14.40
2022-10-10T16:50:13.912Z,14.30
2022-10-10T16:52:42.433Z,14.30
2022-10-10T16:55:12.324Z,14.20
2022-10-10T16:57:41.493Z,14.20
2022-10-10T17:00:11.494Z,14.20
2022-10-10T17:02:42.453Z,14.30
2022-10-10T17:05:11.609Z,14.20
2022-10-10T17:07:40.460Z,14.20
2022-10-10T17:10:12.571Z,14.20
2022-10-10T17:12:44.012Z,14.10
2022-10-10T17:15:13.158Z,14.00
2022-10-10T17:17:43.343Z,13.90
2022-10-10T17:20:13.017Z,13.90
2022-10-10T17:22:42.080Z,13.90
2022-10-10T17:25:11.705Z,14.00
2022-10-10T17:27:42.284Z,14.00
2022-10-10T17:30:12.883Z,13.90
2022-10-10T17:32:46.397Z,13.90
2022-10-10T17:35:15.414Z,14.00
2022-10-10T17:37:44.369Z,14.00
2022-10-10T17:40:13.540Z,14.00
2022-10-10T17:42:43.456Z,14.00
2022-10-10T17:45:12.446Z,13.90
2022-10-10T17:47:43.708Z,13.90
2022-10-10T17:50:13.906Z,13.80
2022-10-10T17:52:42.615Z,13.80
2022-10-10T17:55:11.391Z,14.00
2022-10-10T17:57:40.294Z,13.90
2022-10-10T18:00:10.300Z,13.90
2022-10-10T18:02:39.060Z,13.90
2022-10-10T18:05:08.277Z,13.80
2022-10-10T18:07:38.522Z,13.80
2022-10-10T18:10:07.714Z,13.80
2022-10-10T18:12:36.628Z,13.70
2022-10-10T18:15:06.301Z,13.70
2022-10-10T18:17:35.040Z,13.60
2022-10-10T18:20:04.200Z,13.60
2022-10-10T18:22:32.827Z,13.50
2022-10-10T18:25:02.907Z,13.50
2022-10-10T18:27:31.532Z,13.50
2022-10-10T18:30:00.259Z,13.40
2022-10-10T18:32:28.919Z,13.40
2022-10-10T18:34:57.790Z,13.50
2022-10-10T18:37:26.605Z,13.30
2022-10-10T18:39:58.845Z,13.30
2022-10-10T18:42:29.608Z,13.40
2022-10-10T18:45:02.819Z,13.20
2022-10-10T18:47:31.951Z,13.20
2022-10-10T18:50:00.776Z,13.20
2022-10-10T18:52:29.946Z,13.00
2022-10-10T18:54:58.679Z,12.90
2022-10-10T18:57:28.737Z,12.90
2022-10-10T18:59:57.495Z,12.80
2022-10-10T19:02:26.748Z,12.70
2022-10-10T19:04:55.657Z,12.70
2022-10-10T19:07:24.416Z,12.60
2022-10-10T19:09:53.450Z,12.70
2022-10-10T19:12:22.056Z,12.70
2022-10-10T19:14:52.064Z,12.70
2022-10-10T19:17:20.953Z,12.70
2022-10-10T19:19:49.804Z,12.70
2022-10-10T19:22:18.594Z,12.70
2022-10-10T19:24:48.344Z,12.70
2022-10-10T19:27:17.157Z,12.60
2022-10-10T19:29:45.911Z,12.70
2022-10-10T19:32:16.916Z,12.70
2022-10-10T19:34:45.831Z,12.60
2022-10-10T19:37:14.589Z,12.60
2022-10-10T19:39:43.762Z,12.60
2022-10-10T19:42:12.427Z,12.70
2022-10-10T19:44:41.208Z,12.70
2022-10-10T19:47:10.285Z,12.60
2022-10-10T19:49:40.684Z,12.60
2022-10-10T19:52:09.786Z,12.80
2022-10-10T19:54:38.813Z,12.90
2022-10-10T19:57:07.829Z,12.90
2022-10-10T19:59:36.620Z,13.00
2022-10-10T20:02:05.292Z,13.10
2022-10-10T20:04:34.089Z,13.20
2022-10-10T20:07:04.202Z,13.20
2022-10-10T20:09:32.859Z,13.20
2022-10-10T20:12:01.497Z,13.10
2022-10-10T20:14:30.112Z,13.10
2022-10-10T20:16:58.917Z,13.00
2022-10-10T20:19:27.699Z,13.10
2022-10-10T20:21:56.686Z,13.20
2022-10-10T20:24:26.821Z,13.40
2022-10-10T20:26:56.210Z,13.40
2022-10-10T20:29:25.236Z,13.50
2022-10-10T20:31:53.958Z,13.50
2022-10-10T20:34:22.867Z,13.50
2022-10-10T20:36:52.350Z,13.50
2022-10-10T20:39:21.237Z,13.60
2022-10-10T20:41:55.857Z,13.60
2022-10-10T20:44:24.528Z,13.60
2022-10-10T20:46:53.996Z,13.70
2022-10-10T20:49:23.847Z,13.80
2022-10-10T20:51:53.020Z,13.80
2022-10-10T20:54:23.400Z,13.90
2022-10-10T20:56:53.600Z,13.90
2022-10-10T20:59:24.717Z,13.90
2022-10-10T21:01:53.495Z,13.90
2022-10-10T21:04:22.122Z,13.90
2022-10-10T21:06:51.298Z,14.00
2022-10-10T21:09:20.109Z,14.00
2022-10-10T21:11:52.669Z,14.00
2022-10-10T21:14:21.594Z,14.00
2022-10-10T21:16:51.486Z,13.90
2022-10-10T21:19:20.257Z,14.00
2022-10-10T21:21:48.869Z,13.90
2022-10-10T21:24:17.507Z,13.80
2022-10-10T21:26:49.129Z,13.80
2022-10-10T21:29:19.700Z,13.70
2022-10-10T21:31:48.355Z,13.70
2022-10-10T21:34:18.896Z,13.70
2022-10-10T21:36:47.899Z,13.60
2022-10-10T21:39:16.447Z,13.60
2022-10-10T21:41:45.014Z,13.60
2022-10-10T21:44:15.969Z,13.60
2022-10-10T21:46:46.137Z,13.60
2022-10-10T21:49:14.890Z,13.60
2022-10-10T21:51:45.670Z,13.60
2022-10-10T21:54:14.567Z,13.60
2022-10-10T21:56:43.108Z,13.60
2022-10-10T21:59:12.831Z,13.60
2022-10-10T22:01:41.429Z,13.60
2022-10-10T22:04:11.954Z,13.60
2022-10-10T22:06:40.700Z,13.50
2022-10-10T22:09:09.370Z,13.40
2022-10-10T22:11:38.103Z,13.30
2022-10-10T22:14:07.079Z,13.30
2022-10-10T22:16:36.251Z,13.20
2022-10-10T22:19:05.612Z,13.10
2022-10-10T22:21:37.744Z,13.00
2022-10-10T22:24:08.525Z,13.00
2022-10-10T22:26:37.172Z,12.90
2022-10-10T22:29:06.421Z,12.80
2022-10-10T22:31:37.965Z,12.80
2022-10-10T22:34:07.535Z,12.80
2022-10-10T22:36:37.455Z,12.80
2022-10-10T22:39:07.374Z,12.80
2022-10-10T22:41:36.311Z,12.80
2022-10-10T22:44:05.013Z,12.80
2022-10-10T22:46:34.190Z,12.70
2022-10-10T22:49:02.948Z,12.60
2022-10-10T22:51:31.690Z,12.50
2022-10-10T22:54:01.836Z,12.40
2022-10-10T22:56:30.426Z,12.50
2022-10-10T22:58:59.168Z,12.40
2022-10-10T23:01:28.165Z,12.40
2022-10-10T23:04:00.405Z,12.30
2022-10-10T23:06:29.606Z,12.30
2022-10-10T23:08:58.406Z,12.20
2022-10-10T23:11:28.687Z,12.20
2022-10-10T23:13:57.246Z,12.20
2022-10-10T23:16:26.140Z,12.10
2022-10-10T23:18:54.691Z,12.10
2022-10-10T23:21:23.342Z,12.00
2022-10-10T23:23:52.254Z,12.00
2022-10-10T23:26:20.930Z,11.90
2022-10-10T23:28:52.399Z,11.90
2022-10-10T23:31:21.048Z,11.90
2022-10-10T23:33:49.659Z,11.90
2022-10-10T23:36:18.417Z,11.80
2022-10-10T23:38:47.260Z,11.70
2022-10-10T23:41:18.346Z,11.60
2022-10-10T23:43:46.882Z,11.50
2022-10-10T23:46:16.932Z,11.50
2022-10-10T23:48:45.711Z,11.50
2022-10-10T23:51:14.471Z,11.40
2022-10-10T23:53:43.060Z,11.40
2022-10-10T23:56:13.313Z,11.30
2022-10-10T23:58:41.884Z,11.20
